Time;durP1;ratioP1;P1;durP2;ratioP2;P2;SDS_P1;SDS_P2;PMS_P1;PMS_P2;Temp;Humidity;BMP_temperature;BMP_pressure;BME280_temperature;BME280_humidity;BME280_pressure;Samples;Min_cycle;Max_cycle;Signal;HPM_P1;HPM_P2
2021/09/25 00:00:06;;;;;;;9.27;6.57;;;15.20;84.30;;;;;;4992811;28;20523;-73
2021/09/25 00:02:32;;;;;;;8.35;6.40;;;15.20;84.50;;;;;;4995500;28;20415;-74
2021/09/25 00:04:58;;;;;;;9.55;6.60;;;15.10;85.90;;;;;;4993112;28;20429;-74
2021/09/25 00:07:23;;;;;;;11.20;6.88;;;15.10;86.80;;;;;;4995519;28;20446;-75
2021/09/25 00:09:49;;;;;;;8.77;6.50;;;15.00;87.60;;;;;;4992328;28;20473;-75
2021/09/25 00:12:16;;;;;;;8.52;6.28;;;15.10;88.00;;;;;;4992113;28;20382;-74
2021/09/25 00:14:42;;;;;;;10.02;7.10;;;15.10;87.30;;;;;;4997141;28;20408;-74
2021/09/25 00:17:10;;;;;;;10.55;7.40;;;15.00;87.40;;;;;;5005403;28;20416;-76
2021/09/25 00:19:37;;;;;;;11.02;7.40;;;14.90;90.20;;;;;;4995584;28;20656;-74
2021/09/25 00:22:03;;;;;;;9.87;7.03;;;14.90;90.70;;;;;;4995483;28;20409;-75
2021/09/25 00:24:29;;;;;;;13.07;7.75;;;14.90;90.90;;;;;;4996124;28;20794;-75
2021/09/25 00:26:55;;;;;;;10.50;6.87;;;14.80;90.30;;;;;;4995197;28;20441;-75
2021/09/25 00:29:23;;;;;;;11.47;6.70;;;15.00;89.20;;;;;;4993145;28;20473;-77
2021/09/25 00:31:49;;;;;;;10.98;7.60;;;14.90;89.30;;;;;;4994540;28;20401;-74
2021/09/25 00:34:16;;;;;;;10.35;7.70;;;14.70;89.70;;;;;;4995014;28;20391;-74
2021/09/25 00:36:43;;;;;;;13.95;7.35;;;14.80;91.10;;;;;;4995570;28;20890;-73
2021/09/25 00:39:08;;;;;;;10.02;7.60;;;14.60;91.80;;;;;;4994928;28;20405;-73
2021/09/25 00:41:34;;;;;;;11.45;7.70;;;14.50;93.90;;;;;;4983124;28;20404;-73
2021/09/25 00:44:00;;;;;;;9.70;7.05;;;14.40;95.20;;;;;;4976460;28;20392;-73
2021/09/25 00:46:27;;;;;;;12.07;7.23;;;14.40;96.30;;;;;;4986540;28;20485;-72
2021/09/25 00:48:53;;;;;;;10.88;6.78;;;14.30;97.20;;;;;;4995737;28;20480;-73
2021/09/25 00:51:18;;;;;;;14.93;7.83;;;14.30;98.10;;;;;;4995095;28;20398;-74
2021/09/25 00:53:44;;;;;;;10.77;8.20;;;14.30;99.30;;;;;;4995351;28;20417;-73
2021/09/25 00:56:11;;;;;;;15.70;8.07;;;14.30;99.20;;;;;;4993887;28;20438;-73
2021/09/25 00:58:38;;;;;;;10.27;8.00;;;14.20;99.90;;;;;;4994790;28;20465;-74
2021/09/25 01:01:04;;;;;;;8.75;7.07;;;14.20;99.90;;;;;;4994922;28;20459;-74
2021/09/25 01:03:30;;;;;;;15.05;8.40;;;14.20;99.30;;;;;;4995230;28;20446;-73
2021/09/25 01:05:55;;;;;;;11.95;7.50;;;14.10;99.60;;;;;;4995180;28;20951;-74
2021/09/25 01:08:24;;;;;;;14.63;8.25;;;14.10;99.90;;;;;;4994734;28;20387;-73
2021/09/25 01:10:53;;;;;;;14.88;8.00;;;14.20;99.90;;;;;;4995652;28;20399;-74
2021/09/25 01:13:20;;;;;;;12.35;7.90;;;14.20;99.90;;;;;;4995438;28;20393;-74
2021/09/25 01:15:46;;;;;;;12.85;7.95;;;14.10;99.90;;;;;;5009606;28;20854;-74
2021/09/25 01:18:12;;;;;;;11.85;7.05;;;14.00;99.90;;;;;;5016068;28;20471;-73
2021/09/25 01:20:39;;;;;;;14.43;8.13;;;14.00;99.90;;;;;;5011741;28;20834;-73
2021/09/25 01:23:05;;;;;;;13.03;8.10;;;14.00;99.90;;;;;;4996980;28;20420;-74
2021/09/25 01:25:32;;;;;;;12.07;8.00;;;13.90;99.90;;;;;;4996014;28;20877;-73
2021/09/25 01:27:58;;;;;;;11.45;7.80;;;13.90;99.90;;;;;;4996004;28;20394;-73
2021/09/25 01:30:23;;;;;;;11.48;8.30;;;13.90;99.90;;;;;;4998340;28;20442;-74
2021/09/25 01:32:51;;;;;;;14.60;8.30;;;13.90;99.90;;;;;;4997961;28;20386;-74
2021/09/25 01:35:19;;;;;;;12.45;7.50;;;13.80;99.90;;;;;;4994586;28;20405;-73
2021/09/25 01:37:49;;;;;;;11.27;8.27;;;13.70;99.90;;;;;;4993995;28;20655;-73
2021/09/25 01:40:16;;;;;;;15.82;9.00;;;13.70;99.90;;;;;;4993598;28;20401;-73
2021/09/25 01:42:42;;;;;;;12.35;9.02;;;13.60;99.90;;;;;;4993813;28;20429;-73
2021/09/25 01:45:09;;;;;;;14.73;8.57;;;13.60;99.90;;;;;;4993950;28;20466;-74
2021/09/25 01:47:34;;;;;;;15.10;9.23;;;13.60;99.90;;;;;;4974336;28;20439;-73
2021/09/25 01:50:03;;;;;;;14.13;9.17;;;13.60;99.90;;;;;;4975448;28;20934;-73
2021/09/25 01:52:29;;;;;;;17.05;9.13;;;13.70;99.90;;;;;;4973312;28;20497;-73
2021/09/25 01:54:55;;;;;;;12.25;8.90;;;13.70;99.90;;;;;;4974193;28;20388;-74
2021/09/25 01:57:21;;;;;;;14.88;9.13;;;13.70;99.90;;;;;;4974542;28;20539;-73
2021/09/25 01:59:46;;;;;;;13.25;9.35;;;13.80;99.90;;;;;;5004802;23;20504;-74
2021/09/25 02:02:13;;;;;;;13.93;9.57;;;13.70;99.90;;;;;;4994583;28;20423;-75
2021/09/25 02:04:45;;;;;;;12.82;9.38;;;13.70;99.90;;;;;;4992867;28;20760;-75
2021/09/25 02:07:11;;;;;;;14.23;9.60;;;13.60;99.90;;;;;;4994602;28;20461;-75
2021/09/25 02:09:36;;;;;;;14.80;10.10;;;13.60;99.90;;;;;;5009987;28;20556;-75
2021/09/25 02:12:02;;;;;;;13.18;9.45;;;13.60;99.90;;;;;;4995201;28;20410;-74
2021/09/25 02:14:28;;;;;;;13.10;8.95;;;13.60;99.90;;;;;;4995979;28;20378;-76
2021/09/25 02:16:53;;;;;;;16.53;9.70;;;13.60;99.90;;;;;;5014147;28;20455;-75
2021/09/25 02:19:19;;;;;;;14.98;9.98;;;13.60;99.90;;;;;;5012485;28;20412;-75
2021/09/25 02:21:45;;;;;;;14.85;10.07;;;13.60;99.90;;;;;;5009457;28;20476;-75
2021/09/25 02:24:10;;;;;;;17.33;10.32;;;13.70;99.90;;;;;;4974671;28;20404;-76
2021/09/25 02:26:36;;;;;;;17.63;10.95;;;13.70;99.90;;;;;;4974826;28;20399;-74
2021/09/25 02:29:01;;;;;;;13.80;9.27;;;13.70;99.90;;;;;;5008275;28;20444;-75
2021/09/25 02:31:27;;;;;;;15.00;9.90;;;13.70;99.90;;;;;;5021784;28;20397;-77
2021/09/25 02:33:53;;;;;;;16.63;10.70;;;13.80;99.90;;;;;;5024085;28;20397;-80
2021/09/25 02:36:18;;;;;;;14.63;10.02;;;13.90;99.90;;;;;;4998607;28;20395;-79
2021/09/25 02:38:44;;;;;;;14.73;9.90;;;13.90;99.90;;;;;;5000590;28;20413;-81
2021/09/25 02:41:09;;;;;;;12.50;9.60;;;14.00;99.90;;;;;;5025866;28;20424;-78
2021/09/25 02:43:35;;;;;;;14.03;9.70;;;14.00;99.90;;;;;;5035199;28;20403;-78
2021/09/25 02:46:01;;;;;;;16.50;9.30;;;14.10;99.90;;;;;;5028367;28;20441;-78
2021/09/25 02:48:26;;;;;;;15.60;9.50;;;14.10;99.90;;;;;;5015681;28;20406;-79
2021/09/25 02:50:52;;;;;;;16.10;9.50;;;14.20;99.90;;;;;;5027511;28;20397;-79
2021/09/25 02:53:18;;;;;;;11.87;9.10;;;14.20;99.90;;;;;;5036137;28;20389;-79
2021/09/25 02:55:44;;;;;;;16.25;10.25;;;14.30;99.90;;;;;;5035708;28;20407;-81
2021/09/25 02:58:09;;;;;;;14.40;9.60;;;14.40;99.90;;;;;;5023529;28;20858;-80
2021/09/25 03:00:35;;;;;;;14.53;10.00;;;14.40;99.90;;;;;;5026195;28;20389;-80
2021/09/25 03:03:02;;;;;;;13.07;8.83;;;14.40;98.10;;;;;;5031407;28;20453;-80
2021/09/25 03:05:28;;;;;;;14.55;9.90;;;14.50;97.30;;;;;;5022516;28;20389;-80
2021/09/25 03:07:54;;;;;;;13.13;9.60;;;14.50;95.40;;;;;;5021647;28;20408;-78
2021/09/25 03:10:19;;;;;;;11.93;8.60;;;14.60;94.10;;;;;;5022303;28;20417;-78
2021/09/25 03:12:45;;;;;;;15.50;8.20;;;14.60;94.10;;;;;;5027191;28;20389;-79
2021/09/25 03:15:11;;;;;;;11.23;8.93;;;14.70;90.40;;;;;;5034840;28;20419;-79
2021/09/25 03:17:37;;;;;;;11.45;8.50;;;14.70;89.80;;;;;;5017382;28;20462;-81
2021/09/25 03:20:04;;;;;;;13.52;8.40;;;14.80;89.30;;;;;;5017663;28;20403;-80
2021/09/25 03:22:29;;;;;;;12.90;9.27;;;14.80;88.70;;;;;;5019152;28;20465;-80
2021/09/25 03:24:55;;;;;;;13.87;9.10;;;14.80;88.40;;;;;;5019623;28;20416;-82
2021/09/25 03:27:22;;;;;;;16.03;9.27;;;14.80;88.30;;;;;;5018238;28;20399;-81
2021/09/25 03:29:48;;;;;;;11.88;9.02;;;14.80;89.40;;;;;;5019174;28;20496;-79
2021/09/25 03:32:13;;;;;;;11.57;8.70;;;14.80;89.50;;;;;;5018964;28;20412;-81
2021/09/25 03:34:39;;;;;;;12.00;8.97;;;14.70;89.60;;;;;;5014794;28;20400;-80
2021/09/25 03:37:04;;;;;;;14.63;9.00;;;14.70;90.00;;;;;;5004000;28;20476;-80
2021/09/25 03:39:30;;;;;;;16.30;9.80;;;14.80;91.00;;;;;;4998236;28;20437;-79
2021/09/25 03:41:56;;;;;;;16.42;10.40;;;14.80;90.60;;;;;;5000568;28;20401;-80
2021/09/25 03:44:22;;;;;;;13.50;9.10;;;14.80;89.70;;;;;;5001117;28;20390;-81
2021/09/25 03:46:47;;;;;;;13.00;9.48;;;14.80;88.90;;;;;;5002039;28;20401;-83
2021/09/25 03:49:13;;;;;;;15.23;9.57;;;14.80;88.30;;;;;;5004021;28;20411;-80
2021/09/25 03:51:39;;;;;;;14.93;9.33;;;14.80;88.00;;;;;;5008068;28;20398;-81
2021/09/25 03:54:04;;;;;;;16.50;9.50;;;14.80;87.80;;;;;;5007505;28;20401;-80
2021/09/25 03:56:30;;;;;;;14.77;9.40;;;14.80;88.30;;;;;;5015414;28;20472;-81
2021/09/25 03:58:55;;;;;;;12.30;8.23;;;14.90;87.70;;;;;;5025217;28;20428;-80
2021/09/25 04:01:21;;;;;;;12.45;8.93;;;14.90;86.90;;;;;;5026468;28;20423;-79
2021/09/25 04:03:46;;;;;;;13.32;8.48;;;15.00;84.80;;;;;;5027498;28;20400;-77
2021/09/25 04:06:12;;;;;;;14.02;9.18;;;15.00;84.20;;;;;;5039025;28;20665;-78
2021/09/25 04:08:38;;;;;;;15.50;9.87;;;15.00;83.00;;;;;;5039769;28;20420;-78
2021/09/25 04:11:03;;;;;;;14.27;8.87;;;15.10;82.40;;;;;;5039112;28;20394;-77
2021/09/25 04:13:29;;;;;;;10.97;8.83;;;15.10;83.10;;;;;;5038881;28;20456;-78
2021/09/25 04:15:55;;;;;;;14.47;9.20;;;15.10;82.80;;;;;;5034344;28;20411;-79
2021/09/25 04:18:20;;;;;;;15.43;9.20;;;15.30;78.90;;;;;;5036950;28;20399;-78
2021/09/25 04:20:46;;;;;;;11.90;8.60;;;15.20;79.50;;;;;;5036317;28;20408;-78
2021/09/25 04:23:11;;;;;;;12.07;9.50;;;15.10;80.60;;;;;;5013867;28;20458;-80
2021/09/25 04:25:37;;;;;;;18.67;9.57;;;15.10;80.80;;;;;;5001846;28;20930;-80
2021/09/25 04:28:05;;;;;;;11.50;9.27;;;15.10;81.80;;;;;;5001836;28;20771;-79
2021/09/25 04:30:38;;;;;;;12.25;8.38;;;15.10;81.70;;;;;;5003325;28;20437;-82
2021/09/25 04:33:08;;;;;;;16.33;10.32;;;15.10;82.00;;;;;;5001543;28;20402;-80
2021/09/25 04:35:35;;;;;;;13.57;9.70;;;15.10;82.40;;;;;;5001249;28;20389;-79
2021/09/25 04:38:01;;;;;;;14.10;9.07;;;15.10;82.40;;;;;;5000907;28;20860;-81
2021/09/25 04:40:29;;;;;;;11.57;9.05;;;15.10;82.80;;;;;;5001370;28;20394;-81
2021/09/25 04:42:55;;;;;;;12.20;8.50;;;15.00;83.30;;;;;;5001974;28;20390;-79
2021/09/25 04:45:21;;;;;;;14.27;9.23;;;15.10;83.60;;;;;;5016411;28;20439;-79
2021/09/25 04:47:47;;;;;;;12.70;9.03;;;15.00;83.40;;;;;;5004412;28;20391;-80
2021/09/25 04:50:14;;;;;;;11.57;9.40;;;15.10;82.40;;;;;;5001421;28;20903;-79
2021/09/25 04:52:40;;;;;;;10.30;8.20;;;15.00;82.20;;;;;;4998852;28;20398;-78
2021/09/25 04:55:06;;;;;;;13.43;9.10;;;15.00;83.50;;;;;;5007881;28;20425;-80
2021/09/25 04:57:32;;;;;;;12.97;7.80;;;15.00;83.50;;;;;;5017766;28;20445;-81
2021/09/25 04:59:58;;;;;;;14.82;9.23;;;15.00;83.20;;;;;;5001986;28;20544;-82
2021/09/25 05:02:23;;;;;;;11.88;8.05;;;14.90;84.00;;;;;;5015899;28;20454;-78
2021/09/25 05:04:49;;;;;;;14.37;8.10;;;15.00;82.70;;;;;;5014128;28;20394;-78
2021/09/25 05:07:14;;;;;;;14.03;9.70;;;15.10;81.70;;;;;;5003386;28;20436;-79
2021/09/25 05:09:40;;;;;;;10.70;8.10;;;15.00;82.50;;;;;;4999823;28;20872;-80
2021/09/25 05:12:06;;;;;;;11.30;8.20;;;15.00;82.30;;;;;;5001487;28;20441;-78
2021/09/25 05:14:33;;;;;;;10.57;8.05;;;15.00;82.00;;;;;;5007246;28;20464;-78
2021/09/25 05:16:59;;;;;;;12.52;9.27;;;15.00;82.40;;;;;;5010407;28;20379;-79
2021/09/25 05:19:25;;;;;;;14.70;9.27;;;14.90;83.80;;;;;;5016031;28;20378;-77
2021/09/25 05:21:51;;;;;;;12.52;8.40;;;14.90;84.60;;;;;;5011246;28;20429;-78
2021/09/25 05:24:16;;;;;;;12.02;8.90;;;14.90;85.20;;;;;;5015719;28;20422;-77
2021/09/25 05:26:42;;;;;;;11.15;8.25;;;14.90;85.50;;;;;;5015284;28;20537;-78
2021/09/25 05:29:08;;;;;;;11.70;8.50;;;14.90;84.70;;;;;;5010342;28;20411;-79
2021/09/25 05:31:34;;;;;;;13.30;8.48;;;14.90;84.90;;;;;;5005045;28;20876;-80
2021/09/25 05:34:00;;;;;;;16.65;8.35;;;14.90;84.50;;;;;;5009048;28;20382;-80
2021/09/25 05:36:26;;;;;;;11.70;8.88;;;15.00;83.60;;;;;;5025825;28;20371;-78
2021/09/25 05:38:52;;;;;;;13.97;9.10;;;15.00;82.30;;;;;;5023647;28;20389;-81
2021/09/25 05:41:18;;;;;;;13.07;9.10;;;15.00;82.40;;;;;;5010976;28;20391;-81
2021/09/25 05:43:45;;;;;;;13.45;8.60;;;15.00;82.40;;;;;;5002010;28;20916;-79
2021/09/25 05:46:10;;;;;;;15.32;8.77;;;15.00;82.50;;;;;;5015265;28;20414;-78
2021/09/25 05:48:36;;;;;;;13.25;9.18;;;15.00;82.40;;;;;;5028043;28;20389;-78
2021/09/25 05:51:03;;;;;;;16.60;9.27;;;15.00;82.10;;;;;;5022638;28;20504;-77
2021/09/25 05:53:29;;;;;;;11.73;8.60;;;15.10;82.40;;;;;;5011234;28;20394;-78
2021/09/25 05:55:54;;;;;;;16.15;9.50;;;15.10;81.20;;;;;;5016801;28;20397;-77
2021/09/25 05:58:20;;;;;;;11.73;9.20;;;15.10;81.00;;;;;;5009963;28;20461;-78
2021/09/25 06:00:46;;;;;;;18.63;9.80;;;15.20;80.80;;;;;;4999761;28;20397;-77
2021/09/25 06:03:11;;;;;;;14.13;8.88;;;15.20;80.20;;;;;;5010962;28;20927;-78
2021/09/25 06:05:37;;;;;;;14.97;8.47;;;15.30;78.40;;;;;;5019199;28;20385;-77
2021/09/25 06:08:03;;;;;;;13.30;7.80;;;15.30;77.30;;;;;;5014647;28;20415;-78
2021/09/25 06:10:30;;;;;;;15.63;9.35;;;15.40;76.90;;;;;;5020818;28;20452;-77
2021/09/25 06:12:56;;;;;;;19.05;8.95;;;15.40;76.60;;;;;;5008578;28;20437;-78
2021/09/25 06:15:22;;;;;;;12.60;8.10;;;15.40;74.80;;;;;;5012728;28;20386;-79
2021/09/25 06:17:48;;;;;;;14.30;8.77;;;15.50;73.50;;;;;;5013344;28;20743;-78
2021/09/25 06:20:14;;;;;;;14.60;9.55;;;15.60;72.40;;;;;;5014541;28;20408;-78
2021/09/25 06:22:41;;;;;;;11.80;8.00;;;15.60;72.10;;;;;;5018955;28;20398;-78
2021/09/25 06:25:08;;;;;;;17.80;9.40;;;15.70;70.60;;;;;;5005928;28;20462;-76
2021/09/25 06:27:34;;;;;;;12.65;8.80;;;15.60;69.90;;;;;;5006197;28;20386;-81
2021/09/25 06:29:59;;;;;;;13.85;9.85;;;15.60;70.10;;;;;;5006169;28;20470;-78
2021/09/25 06:32:25;;;;;;;16.15;9.23;;;15.70;69.80;;;;;;5010466;28;20391;-79
2021/09/25 06:34:51;;;;;;;13.30;8.98;;;15.80;68.90;;;;;;5011951;28;20403;-79
2021/09/25 06:37:17;;;;;;;14.90;8.70;;;15.80;67.70;;;;;;5023210;28;20416;-79
2021/09/25 06:39:43;;;;;;;13.85;8.52;;;15.80;66.80;;;;;;5015484;28;20391;-77
2021/09/25 06:42:09;;;;;;;12.57;8.00;;;15.80;67.00;;;;;;5009589;28;20391;-81
2021/09/25 06:44:35;;;;;;;11.40;9.27;;;15.90;65.80;;;;;;5006554;28;20398;-79
2021/09/25 06:47:01;;;;;;;14.40;9.00;;;15.90;65.10;;;;;;5009064;28;20533;-79
2021/09/25 06:49:26;;;;;;;12.50;9.15;;;15.90;64.40;;;;;;5018177;28;20415;-77
2021/09/25 06:51:52;;;;;;;11.70;8.23;;;16.00;64.20;;;;;;5018329;28;20389;-78
2021/09/25 06:54:18;;;;;;;10.98;9.20;;;16.10;62.30;;;;;;4984599;28;20440;-77
2021/09/25 06:56:43;;;;;;;14.43;8.85;;;16.10;62.80;;;;;;4995516;28;20403;-81
2021/09/25 06:59:09;;;;;;;16.90;9.50;;;16.10;61.50;;;;;;4995464;28;20549;-78
2021/09/25 07:01:34;;;;;;;17.40;9.73;;;16.10;61.70;;;;;;4996746;28;20398;-78
2021/09/25 07:04:00;;;;;;;13.75;9.32;;;16.10;62.00;;;;;;5014458;28;20384;-79
2021/09/25 07:06:26;;;;;;;15.00;10.07;;;16.10;61.70;;;;;;5010000;28;20400;-79
2021/09/25 07:08:51;;;;;;;13.93;9.50;;;16.10;61.80;;;;;;5004089;28;20449;-78
2021/09/25 07:11:17;;;;;;;13.80;10.30;;;16.20;61.20;;;;;;5005042;28;20402;-79
2021/09/25 07:13:43;;;;;;;16.47;10.03;;;16.20;61.30;;;;;;5004399;28;20780;-79
2021/09/25 07:16:11;;;;;;;17.67;9.98;;;16.30;60.90;;;;;;4999413;28;20406;-76
2021/09/25 07:18:37;;;;;;;14.45;9.20;;;16.40;59.70;;;;;;4992341;28;20398;-75
2021/09/25 07:21:04;;;;;;;17.93;9.90;;;16.40;59.60;;;;;;4993380;28;20729;-74
2021/09/25 07:23:29;;;;;;;13.88;9.57;;;16.50;58.30;;;;;;4985596;28;20490;-77
2021/09/25 07:25:55;;;;;;;21.35;10.07;;;16.60;57.10;;;;;;5005459;28;20384;-77
2021/09/25 07:28:21;;;;;;;12.20;9.30;;;16.70;55.70;;;;;;5010356;28;20396;-76
2021/09/25 07:30:49;;;;;;;24.53;10.10;;;16.70;54.90;;;;;;4983848;28;20417;-76
2021/09/25 07:33:16;;;;;;;19.07;10.00;;;16.80;55.10;;;;;;4994672;28;20512;-76
2021/09/25 07:35:42;;;;;;;14.13;10.13;;;16.90;53.50;;;;;;4992821;28;20398;-75
2021/09/25 07:38:07;;;;;;;20.13;10.13;;;17.00;52.30;;;;;;4986401;28;20454;-74
2021/09/25 07:40:34;;;;;;;15.25;10.13;;;17.00;52.80;;;;;;4985712;28;20396;-74
2021/09/25 07:43:00;;;;;;;17.15;10.10;;;17.10;52.30;;;;;;4985140;28;20477;-74
2021/09/25 07:45:25;;;;;;;15.40;9.77;;;17.20;51.70;;;;;;4993603;28;20834;-73
2021/09/25 07:47:51;;;;;;;16.17;10.23;;;17.30;50.40;;;;;;5001538;28;20423;-76
2021/09/25 07:50:17;;;;;;;14.35;9.73;;;17.30;50.50;;;;;;4989480;28;20426;-76
2021/09/25 07:52:43;;;;;;;15.80;9.48;;;17.30;50.50;;;;;;4976426;28;20400;-77
2021/09/25 07:55:10;;;;;;;15.68;9.85;;;17.30;50.00;;;;;;4977608;28;20391;-77
2021/09/25 07:57:37;;;;;;;13.38;10.10;;;17.40;49.50;;;;;;5014471;28;20851;-78
2021/09/25 08:00:04;;;;;;;20.40;11.00;;;17.40;49.70;;;;;;5018001;23;20561;-78
2021/09/25 08:02:30;;;;;;;21.98;10.30;;;17.40;49.60;;;;;;5000791;28;20394;-76
2021/09/25 08:04:55;;;;;;;15.05;9.43;;;17.50;49.20;;;;;;5002273;28;20434;-75
2021/09/25 08:07:21;;;;;;;14.37;9.97;;;17.60;48.60;;;;;;5012028;28;20422;-77
2021/09/25 08:09:46;;;;;;;12.90;9.80;;;17.70;48.10;;;;;;5016326;28;20809;-76
2021/09/25 08:12:12;;;;;;;17.23;10.40;;;17.70;47.40;;;;;;5006842;28;20410;-78
2021/09/25 08:14:38;;;;;;;14.38;10.55;;;17.80;47.10;;;;;;5001770;28;20430;-74
2021/09/25 08:17:03;;;;;;;13.50;9.80;;;17.90;47.40;;;;;;5007251;28;20452;-76
2021/09/25 08:19:29;;;;;;;12.67;10.00;;;18.00;45.60;;;;;;5012499;28;20415;-77
2021/09/25 08:21:54;;;;;;;15.40;10.00;;;18.20;44.70;;;;;;5009243;28;20448;-76
2021/09/25 08:24:20;;;;;;;13.65;9.45;;;18.30;44.20;;;;;;5010325;28;20410;-75
2021/09/25 08:26:46;;;;;;;27.40;11.20;;;18.40;43.70;;;;;;5008718;28;20402;-77
2021/09/25 08:29:11;;;;;;;19.60;10.70;;;18.50;43.40;;;;;;5004509;28;20473;-77
2021/09/25 08:31:37;;;;;;;16.60;10.18;;;18.60;43.70;;;;;;5004119;28;20409;-76
2021/09/25 08:34:03;;;;;;;18.67;10.18;;;18.80;42.50;;;;;;5006573;28;20454;-77
2021/09/25 08:36:28;;;;;;;28.13;10.83;;;18.80;41.40;;;;;;5012040;28;20398;-77
2021/09/25 08:38:54;;;;;;;14.63;9.93;;;18.90;41.20;;;;;;5009275;28;20437;-78
2021/09/25 08:41:20;;;;;;;16.00;10.57;;;19.00;39.60;;;;;;5011497;28;20429;-79
2021/09/25 08:43:46;;;;;;;17.77;11.40;;;19.10;38.90;;;;;;5008536;28;20434;-80
2021/09/25 08:46:13;;;;;;;15.68;10.75;;;19.20;39.00;;;;;;5020126;28;20921;-79
2021/09/25 08:48:39;;;;;;;27.67;11.10;;;19.20;38.50;;;;;;5044919;28;20389;-76
2021/09/25 08:51:05;;;;;;;19.25;11.00;;;19.30;38.90;;;;;;5017212;28;20951;-79
2021/09/25 08:53:30;;;;;;;15.15;10.10;;;19.40;37.80;;;;;;5018526;28;20471;-79
2021/09/25 08:55:56;;;;;;;16.00;10.80;;;19.40;37.60;;;;;;5013807;28;20378;-78
2021/09/25 08:58:21;;;;;;;22.93;10.73;;;19.50;37.20;;;;;;5019465;28;20437;-79
2021/09/25 09:00:49;;;;;;;20.37;10.50;;;19.70;37.10;;;;;;5031202;28;20456;-78
2021/09/25 09:03:20;;;;;;;29.88;11.15;;;19.80;36.40;;;;;;4990756;28;20402;-77
2021/09/25 09:05:47;;;;;;;13.82;9.82;;;19.90;36.10;;;;;;4999184;28;20422;-78
2021/09/25 09:08:13;;;;;;;14.20;10.30;;;20.00;35.50;;;;;;5000480;28;20394;-80
2021/09/25 09:10:39;;;;;;;18.15;10.40;;;20.20;34.90;;;;;;5002891;28;20397;-77
2021/09/25 09:13:06;;;;;;;20.17;10.38;;;20.30;34.60;;;;;;5013852;28;20414;-79
2021/09/25 09:15:38;;;;;;;14.20;10.15;;;20.40;34.30;;;;;;5020086;28;20414;-77
2021/09/25 09:18:14;;;;;;;19.20;9.80;;;20.50;34.20;;;;;;5024814;28;20397;-77
2021/09/25 09:20:58;;;;;;;14.93;9.98;;;20.70;33.70;;;;;;5012148;28;20485;-77
2021/09/25 09:23:23;;;;;;;18.40;9.68;;;20.80;32.90;;;;;;5009981;28;20482;-77
2021/09/25 09:25:49;;;;;;;13.90;9.50;;;21.00;32.30;;;;;;5007231;28;20445;-79
2021/09/25 09:28:27;;;;;;;16.43;9.50;;;21.20;31.80;;;;;;5000083;28;20407;-76
2021/09/25 09:30:55;;;;;;;14.52;10.10;;;21.20;31.30;;;;;;4980141;28;20423;-76
2021/09/25 09:33:32;;;;;;;16.90;10.40;;;21.20;31.40;;;;;;4984244;28;20402;-76
2021/09/25 09:36:34;;;;;;;16.53;10.20;;;21.20;31.20;;;;;;4999287;28;20402;-76
2021/09/25 09:39:02;;;;;;;23.07;9.10;;;21.20;31.60;;;;;;5005716;28;20409;-76
2021/09/25 09:41:36;;;;;;;19.17;11.05;;;21.30;31.20;;;;;;5018362;28;20389;-76
2021/09/25 09:44:11;;;;;;;17.57;10.40;;;21.30;31.20;;;;;;5006289;28;20402;-77
2021/09/25 09:46:41;;;;;;;18.65;10.18;;;21.50;31.30;;;;;;5009887;28;20822;-78
2021/09/25 09:49:11;;;;;;;24.40;10.60;;;21.50;30.60;;;;;;5008189;28;20411;-78
2021/09/25 09:51:52;;;;;;;16.17;9.90;;;21.60;30.40;;;;;;4998808;28;20426;-77
2021/09/25 09:54:22;;;;;;;22.10;10.18;;;21.50;30.60;;;;;;5000734;28;20764;-78
2021/09/25 09:56:49;;;;;;;16.02;10.25;;;21.60;30.70;;;;;;4997413;28;20453;-78
2021/09/25 09:59:15;;;;;;;13.35;10.13;;;21.90;30.30;;;;;;4999972;28;20394;-78
2021/09/25 10:01:42;;;;;;;13.00;10.30;;;21.90;29.60;;;;;;5000997;28;20390;-77
2021/09/25 10:04:09;;;;;;;14.20;9.10;;;22.00;29.70;;;;;;5015918;28;20396;-79
2021/09/25 10:06:36;;;;;;;26.65;9.50;;;22.00;29.40;;;;;;5018639;28;20395;-76
2021/09/25 10:09:12;;;;;;;17.83;9.43;;;22.10;29.70;;;;;;4979099;28;20408;-77
2021/09/25 10:11:39;;;;;;;15.13;9.23;;;22.10;29.30;;;;;;4983513;28;20904;-78
2021/09/25 10:14:06;;;;;;;14.88;8.55;;;22.20;29.20;;;;;;5013820;28;20408;-75
2021/09/25 10:16:33;;;;;;;16.98;10.23;;;22.30;28.70;;;;;;5012078;28;20413;-78
2021/09/25 10:19:02;;;;;;;19.90;10.00;;;22.30;27.70;;;;;;5002192;28;20423;-77
2021/09/25 10:21:30;;;;;;;18.73;9.10;;;22.30;28.00;;;;;;5007541;28;20412;-77
2021/09/25 10:24:19;;;;;;;12.95;9.10;;;22.30;28.10;;;;;;5019635;28;20401;-77
2021/09/25 10:26:47;;;;;;;13.65;9.02;;;22.40;28.60;;;;;;5010145;28;20406;-78
2021/09/25 10:29:19;;;;;;;14.30;8.68;;;22.70;28.30;;;;;;4998948;28;20421;-78
2021/09/25 10:31:45;;;;;;;17.02;9.20;;;22.50;27.40;;;;;;4998714;28;20410;-77
2021/09/25 10:34:25;;;;;;;16.42;8.80;;;22.50;27.40;;;;;;4997953;28;20390;-78
2021/09/25 10:36:58;;;;;;;15.40;9.85;;;22.50;27.80;;;;;;4985695;28;20395;-78
2021/09/25 10:39:36;;;;;;;25.50;9.60;;;22.50;27.50;;;;;;4998058;28;20495;-78
2021/09/25 10:42:09;;;;;;;16.75;9.65;;;22.80;27.00;;;;;;4998716;28;20394;-78
2021/09/25 10:44:50;;;;;;;15.43;9.75;;;23.30;26.00;;;;;;5000792;28;20426;-79
2021/09/25 10:47:22;;;;;;;15.43;10.32;;;23.20;25.90;;;;;;5012884;28;20408;-78
2021/09/25 10:49:59;;;;;;;15.25;9.35;;;23.10;25.80;;;;;;5006180;28;20454;-80
2021/09/25 10:52:51;;;;;;;13.27;9.75;;;23.00;26.00;;;;;;5000168;28;20422;-79
2021/09/25 10:55:24;;;;;;;15.13;9.30;;;22.90;26.00;;;;;;5003457;28;20403;-76
2021/09/25 10:58:25;;;;;;;18.52;8.70;;;23.00;26.40;;;;;;4999849;28;20398;-79
2021/09/25 11:00:54;;;;;;;12.05;9.30;;;23.00;26.10;;;;;;4993712;28;20513;-78
2021/09/25 11:03:46;;;;;;;14.43;10.63;;;23.10;25.80;;;;;;5017750;28;20391;-79
2021/09/25 11:06:27;;;;;;;15.18;8.65;;;23.00;25.70;;;;;;5021227;28;20377;-78
2021/09/25 11:09:03;;;;;;;14.27;9.50;;;22.90;25.90;;;;;;5018819;28;20944;-79
2021/09/25 11:12:07;;;;;;;15.57;9.20;;;23.00;26.20;;;;;;5006821;28;20394;-76
2021/09/25 11:14:40;;;;;;;14.23;9.05;;;23.00;26.20;;;;;;4993324;28;20412;-78
2021/09/25 11:17:15;;;;;;;13.73;8.85;;;23.00;25.70;;;;;;5024747;28;20381;-78
2021/09/25 11:19:57;;;;;;;17.67;9.85;;;22.80;25.90;;;;;;5022258;28;20401;-78
2021/09/25 11:22:37;;;;;;;13.93;8.90;;;22.90;26.30;;;;;;5016137;28;20394;-79
2021/09/25 11:25:17;;;;;;;11.77;8.10;;;22.90;25.30;;;;;;5010614;28;20386;-80
2021/09/25 11:27:45;;;;;;;17.03;8.10;;;23.00;26.40;;;;;;5012735;28;20488;-77
2021/09/25 11:30:17;;;;;;;13.98;9.15;;;23.00;26.10;;;;;;5012085;28;20469;-80
2021/09/25 11:32:58;;;;;;;19.17;9.65;;;22.90;25.80;;;;;;5007803;28;20875;-80
2021/09/25 11:35:33;;;;;;;13.63;8.80;;;23.00;25.80;;;;;;5006636;28;20386;-76
2021/09/25 11:38:01;;;;;;;14.38;8.95;;;23.10;25.30;;;;;;5010030;28;20413;-77
2021/09/25 11:40:39;;;;;;;13.93;9.73;;;23.00;25.00;;;;;;5005497;28;20393;-77
2021/09/25 11:43:16;;;;;;;11.25;7.85;;;23.00;25.20;;;;;;5003176;28;20409;-77
2021/09/25 11:45:47;;;;;;;33.67;9.17;;;23.10;25.40;;;;;;5012574;28;20599;-77
2021/09/25 11:48:20;;;;;;;14.82;8.20;;;23.20;24.90;;;;;;5020748;28;20515;-77
2021/09/25 11:50:50;;;;;;;12.10;8.30;;;23.20;24.20;;;;;;5021963;28;20543;-78
2021/09/25 11:53:18;;;;;;;15.20;8.60;;;23.20;24.30;;;;;;5021079;28;20385;-79
2021/09/25 11:55:45;;;;;;;13.80;7.60;;;23.60;23.80;;;;;;5023327;28;20407;-78
2021/09/25 11:58:14;;;;;;;23.50;7.95;;;23.60;23.40;;;;;;5001907;28;20444;-78
2021/09/25 12:01:02;;;;;;;17.85;8.32;;;23.80;23.10;;;;;;4998845;28;20399;-78
2021/09/25 12:03:31;;;;;;;19.73;8.40;;;23.70;22.90;;;;;;4998189;28;20490;-79
2021/09/25 12:05:59;;;;;;;9.30;6.93;;;23.90;23.30;;;;;;4998537;28;20391;-77
2021/09/25 12:08:29;;;;;;;14.73;7.40;;;24.30;22.50;;;;;;5002375;28;20416;-76
2021/09/25 12:11:08;;;;;;;8.73;6.90;;;24.60;22.20;;;;;;5016864;28;20412;-79
2021/09/25 12:13:39;;;;;;;8.95;7.55;;;24.90;21.20;;;;;;5021462;28;20468;-77
2021/09/25 12:16:17;;;;;;;10.15;7.40;;;25.20;20.50;;;;;;5020715;28;20421;-77
2021/09/25 12:18:51;;;;;;;11.77;7.00;;;25.40;19.40;;;;;;5021999;28;20423;-77
2021/09/25 12:21:23;;;;;;;11.43;7.97;;;25.50;19.90;;;;;;5020155;28;20750;-75
2021/09/25 12:24:05;;;;;;;58.95;38.30;;;25.10;20.00;;;;;;5000828;28;20926;-79
2021/09/25 12:26:33;;;;;;;18.23;11.25;;;25.00;20.60;;;;;;5003373;28;20410;-78
2021/09/25 12:29:04;;;;;;;12.63;7.80;;;25.00;20.80;;;;;;5003420;28;20383;-78
2021/09/25 12:31:33;;;;;;;11.98;8.20;;;24.80;20.80;;;;;;5002833;28;20398;-77
2021/09/25 12:34:21;;;;;;;11.82;8.05;;;24.30;21.50;;;;;;5019965;28;20403;-75
2021/09/25 12:36:49;;;;;;;11.52;7.97;;;23.70;23.20;;;;;;5005304;28;20406;-80
2021/09/25 12:39:22;;;;;;;13.13;8.90;;;23.30;24.50;;;;;;5000742;28;20603;-79